Main page
METAR-TAF:

METAR-TAF

Airports :

Istanbul Atatürk, Turkey

Istanbul Atatürk Airport

latitude: 40-58N, longitude: 028-49E, elevation: 48 m

Current weather observation

The report was made 29 minutes ago, at 21:50 UTC
Wind 5 kt from variable directions
Temperature 7°C
Humidity 70%
Pressure 1024 hPa
Visibility 10 km or more
no clouds below 1500 m and no cumulonimbus

METAR: LTBA 272150Z VRB05KT CAVOK 07/02 Q1024 NOSIG

Time: 01:19 (22:19 UTC)

Forecast

The report was made 5 hours and 39 minutes ago, at 16:40 UTC
Forecast valid from 27 at 18 UTC to 28 at 24 UTC
Wind 8 kt from the North/Northeast
Visibility 10 km or more
Scattered clouds at a height of 3500 ft
Becoming
from 27 at 18 UTC to 27 at 21 UTC
Visibility 10 km or more
no clouds below 1500 m and no cumulonimbus

TAF: LTBA 271640Z 2718/2824 03008KT 9999 SCT035 BECMG 2718/2721 CAVOK

Weather observations and forecasts of more than 4000 airports (METAR and TAF reports).

The available stations are represented by yellow and red dots on the map.

Hover mouse over dot to see the name of the station.

Then click to see weather observations and forecasts.

To change the map : click on the green buttons with a black cross to zoom in, on the green button with a dash to zoom out, or on the green arrows for adjacent maps.


METAR-TAF: